sensor_id;sensor_type;location;lat;lon;timestamp;P1;durP1;ratioP1;P2;durP2;ratioP2
73023;SDS011;61199;47.526;8.538;2022-12-18T00:02:06;72.27;;;33.40;;
73023;SDS011;61199;47.526;8.538;2022-12-18T00:04:32;70.00;;;31.50;;
73023;SDS011;61199;47.526;8.538;2022-12-18T00:06:59;76.70;;;34.73;;
73023;SDS011;61199;47.526;8.538;2022-12-18T00:09:25;63.90;;;31.27;;
73023;SDS011;61199;47.526;8.538;2022-12-18T00:12:05;69.77;;;31.30;;
73023;SDS011;61199;47.526;8.538;2022-12-18T00:14:41;74.20;;;32.77;;
73023;SDS011;61199;47.526;8.538;2022-12-18T00:17:08;77.10;;;32.30;;
73023;SDS011;61199;47.526;8.538;2022-12-18T00:19:34;73.97;;;31.87;;
73023;SDS011;61199;47.526;8.538;2022-12-18T00:22:01;72.53;;;32.30;;
73023;SDS011;61199;47.526;8.538;2022-12-18T00:24:27;82.70;;;33.70;;
73023;SDS011;61199;47.526;8.538;2022-12-18T00:26:54;73.23;;;33.67;;
73023;SDS011;61199;47.526;8.538;2022-12-18T00:29:20;83.93;;;35.63;;
73023;SDS011;61199;47.526;8.538;2022-12-18T00:31:46;79.40;;;35.13;;
73023;SDS011;61199;47.526;8.538;2022-12-18T00:34:13;89.37;;;35.73;;
73023;SDS011;61199;47.526;8.538;2022-12-18T00:36:40;73.37;;;33.13;;
73023;SDS011;61199;47.526;8.538;2022-12-18T00:39:07;76.87;;;33.70;;
73023;SDS011;61199;47.526;8.538;2022-12-18T00:41:33;80.40;;;34.13;;
73023;SDS011;61199;47.526;8.538;2022-12-18T00:44:19;75.10;;;34.30;;
73023;SDS011;61199;47.526;8.538;2022-12-18T00:46:46;83.50;;;37.37;;
73023;SDS011;61199;47.526;8.538;2022-12-18T00:49:14;90.30;;;38.57;;
73023;SDS011;61199;47.526;8.538;2022-12-18T00:51:42;85.17;;;36.50;;
73023;SDS011;61199;47.526;8.538;2022-12-18T00:54:09;94.17;;;39.40;;
73023;SDS011;61199;47.526;8.538;2022-12-18T00:56:37;90.90;;;40.00;;
73023;SDS011;61199;47.526;8.538;2022-12-18T00:59:14;86.00;;;38.07;;
73023;SDS011;61199;47.526;8.538;2022-12-18T01:01:41;76.73;;;35.63;;
73023;SDS011;61199;47.526;8.538;2022-12-18T01:04:07;91.30;;;37.63;;
73023;SDS011;61199;47.526;8.538;2022-12-18T01:06:34;84.43;;;36.20;;
73023;SDS011;61199;47.526;8.538;2022-12-18T01:09:01;77.70;;;34.57;;
73023;SDS011;61199;47.526;8.538;2022-12-18T01:11:28;83.90;;;37.03;;
73023;SDS011;61199;47.526;8.538;2022-12-18T01:13:55;84.50;;;37.13;;
73023;SDS011;61199;47.526;8.538;2022-12-18T01:16:21;83.00;;;37.40;;
73023;SDS011;61199;47.526;8.538;2022-12-18T01:18:51;89.97;;;36.90;;
73023;SDS011;61199;47.526;8.538;2022-12-18T01:21:20;81.27;;;37.30;;
73023;SDS011;61199;47.526;8.538;2022-12-18T01:23:50;83.30;;;36.23;;
73023;SDS011;61199;47.526;8.538;2022-12-18T01:26:18;89.37;;;37.57;;
73023;SDS011;61199;47.526;8.538;2022-12-18T01:28:44;91.47;;;39.33;;
73023;SDS011;61199;47.526;8.538;2022-12-18T01:31:18;93.70;;;38.87;;
73023;SDS011;61199;47.526;8.538;2022-12-18T01:33:47;80.67;;;36.90;;
73023;SDS011;61199;47.526;8.538;2022-12-18T01:36:14;90.30;;;38.67;;
73023;SDS011;61199;47.526;8.538;2022-12-18T01:38:48;96.70;;;40.50;;
73023;SDS011;61199;47.526;8.538;2022-12-18T01:41:16;92.63;;;37.07;;
73023;SDS011;61199;47.526;8.538;2022-12-18T01:43:46;88.30;;;38.13;;
73023;SDS011;61199;47.526;8.538;2022-12-18T01:46:19;97.70;;;39.90;;
73023;SDS011;61199;47.526;8.538;2022-12-18T01:48:47;88.80;;;40.60;;
73023;SDS011;61199;47.526;8.538;2022-12-18T01:51:16;92.10;;;37.87;;
73023;SDS011;61199;47.526;8.538;2022-12-18T01:53:43;95.47;;;40.17;;
73023;SDS011;61199;47.526;8.538;2022-12-18T01:56:21;83.80;;;36.70;;
73023;SDS011;61199;47.526;8.538;2022-12-18T01:58:55;90.30;;;37.50;;
73023;SDS011;61199;47.526;8.538;2022-12-18T02:01:27;98.60;;;38.83;;
73023;SDS011;61199;47.526;8.538;2022-12-18T02:03:56;94.07;;;38.00;;
73023;SDS011;61199;47.526;8.538;2022-12-18T02:06:42;96.00;;;39.87;;
73023;SDS011;61199;47.526;8.538;2022-12-18T02:09:11;96.23;;;38.80;;
73023;SDS011;61199;47.526;8.538;2022-12-18T02:11:49;95.47;;;38.80;;
73023;SDS011;61199;47.526;8.538;2022-12-18T02:14:23;94.80;;;38.73;;
73023;SDS011;61199;47.526;8.538;2022-12-18T02:17:03;100.87;;;40.50;;
73023;SDS011;61199;47.526;8.538;2022-12-18T02:19:41;96.30;;;40.50;;
73023;SDS011;61199;47.526;8.538;2022-12-18T02:27:46;98.77;;;38.03;;
73023;SDS011;61199;47.526;8.538;2022-12-18T02:30:15;93.83;;;37.90;;
73023;SDS011;61199;47.526;8.538;2022-12-18T02:32:42;95.93;;;39.30;;
73023;SDS011;61199;47.526;8.538;2022-12-18T02:35:17;98.43;;;40.77;;
73023;SDS011;61199;47.526;8.538;2022-12-18T02:37:48;105.47;;;39.07;;
73023;SDS011;61199;47.526;8.538;2022-12-18T02:40:16;97.73;;;38.13;;
73023;SDS011;61199;47.526;8.538;2022-12-18T02:42:44;101.83;;;41.20;;
73023;SDS011;61199;47.526;8.538;2022-12-18T02:45:10;97.90;;;38.20;;
73023;SDS011;61199;47.526;8.538;2022-12-18T02:47:37;107.57;;;40.63;;
73023;SDS011;61199;47.526;8.538;2022-12-18T02:55:52;93.87;;;37.50;;
73023;SDS011;61199;47.526;8.538;2022-12-18T02:58:51;114.97;;;41.50;;
73023;SDS011;61199;47.526;8.538;2022-12-18T03:01:40;104.93;;;37.73;;
73023;SDS011;61199;47.526;8.538;2022-12-18T03:04:20;109.07;;;40.77;;
73023;SDS011;61199;47.526;8.538;2022-12-18T03:06:56;101.97;;;40.60;;
73023;SDS011;61199;47.526;8.538;2022-12-18T03:12:19;99.27;;;39.60;;
73023;SDS011;61199;47.526;8.538;2022-12-18T03:14:58;113.77;;;41.20;;
73023;SDS011;61199;47.526;8.538;2022-12-18T03:18:03;98.10;;;37.80;;
73023;SDS011;61199;47.526;8.538;2022-12-18T03:20:35;99.17;;;40.57;;
73023;SDS011;61199;47.526;8.538;2022-12-18T03:23:07;114.43;;;41.73;;
73023;SDS011;61199;47.526;8.538;2022-12-18T03:25:38;109.30;;;39.73;;
73023;SDS011;61199;47.526;8.538;2022-12-18T03:28:09;105.87;;;40.73;;
73023;SDS011;61199;47.526;8.538;2022-12-18T03:30:40;112.30;;;42.60;;
73023;SDS011;61199;47.526;8.538;2022-12-18T03:33:27;105.43;;;38.80;;
73023;SDS011;61199;47.526;8.538;2022-12-18T03:36:00;108.43;;;41.57;;
73023;SDS011;61199;47.526;8.538;2022-12-18T03:38:27;111.27;;;41.00;;
73023;SDS011;61199;47.526;8.538;2022-12-18T03:40:56;114.07;;;44.00;;
73023;SDS011;61199;47.526;8.538;2022-12-18T03:49:12;109.90;;;40.97;;
73023;SDS011;61199;47.526;8.538;2022-12-18T03:51:48;114.70;;;41.97;;
73023;SDS011;61199;47.526;8.538;2022-12-18T03:54:18;112.07;;;40.47;;
73023;SDS011;61199;47.526;8.538;2022-12-18T03:56:51;107.93;;;39.50;;
73023;SDS011;61199;47.526;8.538;2022-12-18T03:59:26;117.13;;;40.63;;
73023;SDS011;61199;47.526;8.538;2022-12-18T04:01:55;131.60;;;43.03;;
73023;SDS011;61199;47.526;8.538;2022-12-18T04:04:25;120.23;;;42.10;;
73023;SDS011;61199;47.526;8.538;2022-12-18T04:06:53;121.83;;;43.27;;
73023;SDS011;61199;47.526;8.538;2022-12-18T04:09:21;123.73;;;41.33;;
73023;SDS011;61199;47.526;8.538;2022-12-18T04:11:47;111.33;;;40.50;;
73023;SDS011;61199;47.526;8.538;2022-12-18T04:14:14;115.63;;;42.63;;
73023;SDS011;61199;47.526;8.538;2022-12-18T04:16:43;123.80;;;41.87;;
73023;SDS011;61199;47.526;8.538;2022-12-18T04:19:10;120.37;;;41.80;;
73023;SDS011;61199;47.526;8.538;2022-12-18T04:21:36;125.10;;;43.80;;
73023;SDS011;61199;47.526;8.538;2022-12-18T04:24:03;112.83;;;42.43;;
73023;SDS011;61199;47.526;8.538;2022-12-18T04:26:29;112.80;;;39.90;;
73023;SDS011;61199;47.526;8.538;2022-12-18T04:28:56;122.83;;;44.30;;
73023;SDS011;61199;47.526;8.538;2022-12-18T04:31:22;134.90;;;43.80;;
73023;SDS011;61199;47.526;8.538;2022-12-18T04:33:49;118.30;;;44.17;;
73023;SDS011;61199;47.526;8.538;2022-12-18T04:36:15;108.87;;;40.10;;
73023;SDS011;61199;47.526;8.538;2022-12-18T04:38:42;129.73;;;42.43;;
73023;SDS011;61199;47.526;8.538;2022-12-18T04:41:08;117.40;;;43.50;;
73023;SDS011;61199;47.526;8.538;2022-12-18T04:43:34;109.03;;;39.93;;
73023;SDS011;61199;47.526;8.538;2022-12-18T04:46:04;123.77;;;42.60;;
73023;SDS011;61199;47.526;8.538;2022-12-18T04:48:32;113.47;;;39.10;;
73023;SDS011;61199;47.526;8.538;2022-12-18T04:50:59;109.53;;;41.07;;
73023;SDS011;61199;47.526;8.538;2022-12-18T04:53:25;115.43;;;42.93;;
73023;SDS011;61199;47.526;8.538;2022-12-18T04:56:01;116.90;;;41.50;;
73023;SDS011;61199;47.526;8.538;2022-12-18T04:58:36;105.53;;;40.43;;
73023;SDS011;61199;47.526;8.538;2022-12-18T05:01:03;117.27;;;40.50;;
73023;SDS011;61199;47.526;8.538;2022-12-18T05:03:30;116.70;;;41.77;;
73023;SDS011;61199;47.526;8.538;2022-12-18T05:05:57;117.20;;;43.00;;
73023;SDS011;61199;47.526;8.538;2022-12-18T05:08:23;117.70;;;41.77;;
73023;SDS011;61199;47.526;8.538;2022-12-18T05:10:50;122.80;;;41.40;;
73023;SDS011;61199;47.526;8.538;2022-12-18T05:13:27;115.10;;;42.90;;
73023;SDS011;61199;47.526;8.538;2022-12-18T05:15:54;116.40;;;43.80;;
73023;SDS011;61199;47.526;8.538;2022-12-18T05:18:21;118.10;;;40.10;;
73023;SDS011;61199;47.526;8.538;2022-12-18T05:20:49;111.40;;;42.33;;
73023;SDS011;61199;47.526;8.538;2022-12-18T05:23:16;125.60;;;43.47;;
73023;SDS011;61199;47.526;8.538;2022-12-18T05:25:46;118.97;;;42.13;;
73023;SDS011;61199;47.526;8.538;2022-12-18T05:28:16;110.97;;;40.40;;
73023;SDS011;61199;47.526;8.538;2022-12-18T05:30:42;111.20;;;42.10;;
73023;SDS011;61199;47.526;8.538;2022-12-18T05:33:13;113.97;;;40.60;;
73023;SDS011;61199;47.526;8.538;2022-12-18T05:35:40;118.83;;;40.30;;
73023;SDS011;61199;47.526;8.538;2022-12-18T05:38:06;111.83;;;43.00;;
73023;SDS011;61199;47.526;8.538;2022-12-18T05:40:32;107.13;;;41.60;;
73023;SDS011;61199;47.526;8.538;2022-12-18T05:42:59;122.23;;;42.17;;
73023;SDS011;61199;47.526;8.538;2022-12-18T05:45:26;114.87;;;39.40;;
73023;SDS011;61199;47.526;8.538;2022-12-18T05:47:53;107.33;;;41.13;;
73023;SDS011;61199;47.526;8.538;2022-12-18T05:50:20;110.83;;;39.60;;
73023;SDS011;61199;47.526;8.538;2022-12-18T05:52:46;100.67;;;39.50;;
73023;SDS011;61199;47.526;8.538;2022-12-18T05:55:12;107.07;;;41.17;;
73023;SDS011;61199;47.526;8.538;2022-12-18T05:57:39;106.93;;;40.50;;
73023;SDS011;61199;47.526;8.538;2022-12-18T06:00:05;107.70;;;41.50;;
73023;SDS011;61199;47.526;8.538;2022-12-18T06:02:32;108.00;;;39.77;;
73023;SDS011;61199;47.526;8.538;2022-12-18T06:04:59;108.57;;;40.40;;
73023;SDS011;61199;47.526;8.538;2022-12-18T06:07:25;106.63;;;40.37;;
73023;SDS011;61199;47.526;8.538;2022-12-18T06:09:51;102.53;;;38.97;;
73023;SDS011;61199;47.526;8.538;2022-12-18T06:12:18;112.53;;;41.27;;
73023;SDS011;61199;47.526;8.538;2022-12-18T06:14:44;102.43;;;39.20;;
73023;SDS011;61199;47.526;8.538;2022-12-18T06:17:11;120.77;;;42.80;;
73023;SDS011;61199;47.526;8.538;2022-12-18T06:19:37;107.43;;;41.07;;
73023;SDS011;61199;47.526;8.538;2022-12-18T06:22:03;105.30;;;39.70;;
73023;SDS011;61199;47.526;8.538;2022-12-18T06:24:30;104.43;;;40.67;;
73023;SDS011;61199;47.526;8.538;2022-12-18T06:26:56;113.63;;;40.90;;
73023;SDS011;61199;47.526;8.538;2022-12-18T06:29:22;114.03;;;41.17;;
73023;SDS011;61199;47.526;8.538;2022-12-18T06:31:49;108.30;;;39.67;;
73023;SDS011;61199;47.526;8.538;2022-12-18T06:34:15;112.70;;;42.10;;
73023;SDS011;61199;47.526;8.538;2022-12-18T06:36:42;107.37;;;40.73;;
73023;SDS011;61199;47.526;8.538;2022-12-18T06:39:08;115.33;;;43.10;;
73023;SDS011;61199;47.526;8.538;2022-12-18T06:41:35;112.50;;;40.27;;
73023;SDS011;61199;47.526;8.538;2022-12-18T06:44:01;117.17;;;43.93;;
73023;SDS011;61199;47.526;8.538;2022-12-18T06:46:28;110.13;;;44.23;;
73023;SDS011;61199;47.526;8.538;2022-12-18T06:48:54;112.63;;;42.40;;
73023;SDS011;61199;47.526;8.538;2022-12-18T06:51:21;108.37;;;40.37;;
73023;SDS011;61199;47.526;8.538;2022-12-18T06:53:49;113.00;;;40.30;;
73023;SDS011;61199;47.526;8.538;2022-12-18T06:56:15;118.53;;;41.13;;
73023;SDS011;61199;47.526;8.538;2022-12-18T06:58:42;108.20;;;39.30;;
73023;SDS011;61199;47.526;8.538;2022-12-18T07:01:09;114.50;;;43.27;;
73023;SDS011;61199;47.526;8.538;2022-12-18T07:03:37;116.20;;;42.90;;
73023;SDS011;61199;47.526;8.538;2022-12-18T07:06:18;112.50;;;42.40;;
73023;SDS011;61199;47.526;8.538;2022-12-18T07:08:46;113.80;;;41.97;;
73023;SDS011;61199;47.526;8.538;2022-12-18T07:11:14;110.80;;;39.60;;
73023;SDS011;61199;47.526;8.538;2022-12-18T07:13:40;112.53;;;42.03;;
73023;SDS011;61199;47.526;8.538;2022-12-18T07:16:08;109.20;;;42.33;;
73023;SDS011;61199;47.526;8.538;2022-12-18T07:18:49;107.83;;;39.90;;
73023;SDS011;61199;47.526;8.538;2022-12-18T07:21:17;116.27;;;42.20;;
73023;SDS011;61199;47.526;8.538;2022-12-18T07:23:45;111.27;;;39.30;;
73023;SDS011;61199;47.526;8.538;2022-12-18T07:26:14;109.13;;;40.47;;
73023;SDS011;61199;47.526;8.538;2022-12-18T07:28:42;114.47;;;41.30;;
73023;SDS011;61199;47.526;8.538;2022-12-18T07:31:11;111.30;;;42.27;;
73023;SDS011;61199;47.526;8.538;2022-12-18T07:33:39;104.73;;;39.00;;
73023;SDS011;61199;47.526;8.538;2022-12-18T07:36:07;99.80;;;39.53;;
73023;SDS011;61199;47.526;8.538;2022-12-18T07:38:36;118.30;;;42.30;;
73023;SDS011;61199;47.526;8.538;2022-12-18T07:41:09;101.20;;;38.80;;
73023;SDS011;61199;47.526;8.538;2022-12-18T07:43:37;121.03;;;42.47;;
73023;SDS011;61199;47.526;8.538;2022-12-18T07:46:05;119.23;;;41.70;;
73023;SDS011;61199;47.526;8.538;2022-12-18T07:48:33;105.00;;;39.23;;
73023;SDS011;61199;47.526;8.538;2022-12-18T07:51:03;103.80;;;37.53;;
73023;SDS011;61199;47.526;8.538;2022-12-18T07:53:32;117.87;;;42.00;;
73023;SDS011;61199;47.526;8.538;2022-12-18T07:56:01;110.57;;;39.80;;
73023;SDS011;61199;47.526;8.538;2022-12-18T07:58:51;111.40;;;41.43;;
73023;SDS011;61199;47.526;8.538;2022-12-18T08:01:18;103.93;;;39.50;;
73023;SDS011;61199;47.526;8.538;2022-12-18T08:03:46;124.03;;;41.33;;
73023;SDS011;61199;47.526;8.538;2022-12-18T08:06:13;111.70;;;41.87;;
73023;SDS011;61199;47.526;8.538;2022-12-18T08:08:39;108.20;;;40.50;;
73023;SDS011;61199;47.526;8.538;2022-12-18T08:11:07;113.73;;;40.40;;
73023;SDS011;61199;47.526;8.538;2022-12-18T08:13:34;103.90;;;38.63;;
73023;SDS011;61199;47.526;8.538;2022-12-18T08:16:01;105.00;;;37.77;;
73023;SDS011;61199;47.526;8.538;2022-12-18T08:18:29;101.73;;;39.03;;
73023;SDS011;61199;47.526;8.538;2022-12-18T08:21:09;110.53;;;41.13;;
73023;SDS011;61199;47.526;8.538;2022-12-18T08:23:37;125.73;;;41.83;;
73023;SDS011;61199;47.526;8.538;2022-12-18T08:26:08;99.63;;;38.67;;
73023;SDS011;61199;47.526;8.538;2022-12-18T08:28:36;100.33;;;39.97;;
73023;SDS011;61199;47.526;8.538;2022-12-18T08:31:03;106.57;;;38.67;;
73023;SDS011;61199;47.526;8.538;2022-12-18T08:33:30;103.47;;;40.57;;
73023;SDS011;61199;47.526;8.538;2022-12-18T08:35:58;95.97;;;37.83;;
73023;SDS011;61199;47.526;8.538;2022-12-18T08:38:25;109.60;;;39.47;;
73023;SDS011;61199;47.526;8.538;2022-12-18T08:41:07;96.60;;;38.53;;
73023;SDS011;61199;47.526;8.538;2022-12-18T08:43:37;105.80;;;39.17;;
73023;SDS011;61199;47.526;8.538;2022-12-18T08:46:23;102.37;;;39.43;;
73023;SDS011;61199;47.526;8.538;2022-12-18T08:48:51;109.70;;;40.07;;
73023;SDS011;61199;47.526;8.538;2022-12-18T08:51:19;113.93;;;42.40;;
73023;SDS011;61199;47.526;8.538;2022-12-18T08:53:46;104.47;;;38.90;;
73023;SDS011;61199;47.526;8.538;2022-12-18T08:56:13;99.53;;;37.97;;
73023;SDS011;61199;47.526;8.538;2022-12-18T08:58:41;94.67;;;37.83;;
73023;SDS011;61199;47.526;8.538;2022-12-18T09:01:09;98.27;;;37.40;;
73023;SDS011;61199;47.526;8.538;2022-12-18T09:03:37;102.83;;;37.63;;
73023;SDS011;61199;47.526;8.538;2022-12-18T09:06:05;109.80;;;40.97;;
73023;SDS011;61199;47.526;8.538;2022-12-18T09:08:32;101.00;;;38.23;;
73023;SDS011;61199;47.526;8.538;2022-12-18T09:11:03;99.47;;;37.10;;
73023;SDS011;61199;47.526;8.538;2022-12-18T09:13:29;91.70;;;36.73;;
73023;SDS011;61199;47.526;8.538;2022-12-18T09:15:56;80.33;;;34.87;;
73023;SDS011;61199;47.526;8.538;2022-12-18T09:18:23;86.00;;;35.07;;
73023;SDS011;61199;47.526;8.538;2022-12-18T09:20:50;97.87;;;38.10;;
73023;SDS011;61199;47.526;8.538;2022-12-18T09:23:19;91.53;;;35.70;;
73023;SDS011;61199;47.526;8.538;2022-12-18T09:25:46;91.27;;;35.97;;
73023;SDS011;61199;47.526;8.538;2022-12-18T09:28:13;91.33;;;36.50;;
73023;SDS011;61199;47.526;8.538;2022-12-18T09:30:42;97.47;;;40.37;;
73023;SDS011;61199;47.526;8.538;2022-12-18T09:33:11;87.83;;;38.10;;
73023;SDS011;61199;47.526;8.538;2022-12-18T09:35:38;103.03;;;39.50;;
73023;SDS011;61199;47.526;8.538;2022-12-18T09:38:05;100.70;;;38.53;;
73023;SDS011;61199;47.526;8.538;2022-12-18T09:40:34;108.17;;;41.90;;
73023;SDS011;61199;47.526;8.538;2022-12-18T09:43:05;84.47;;;34.90;;
73023;SDS011;61199;47.526;8.538;2022-12-18T09:45:47;95.43;;;37.90;;
73023;SDS011;61199;47.526;8.538;2022-12-18T09:48:28;85.87;;;34.93;;
73023;SDS011;61199;47.526;8.538;2022-12-18T09:51:00;90.30;;;38.50;;
73023;SDS011;61199;47.526;8.538;2022-12-18T09:53:32;100.73;;;38.50;;
73023;SDS011;61199;47.526;8.538;2022-12-18T09:56:04;96.87;;;37.90;;
73023;SDS011;61199;47.526;8.538;2022-12-18T09:58:39;88.57;;;37.47;;
73023;SDS011;61199;47.526;8.538;2022-12-18T10:01:15;84.53;;;35.87;;
73023;SDS011;61199;47.526;8.538;2022-12-18T10:03:47;92.17;;;35.60;;
73023;SDS011;61199;47.526;8.538;2022-12-18T10:06:14;99.10;;;38.73;;
73023;SDS011;61199;47.526;8.538;2022-12-18T10:11:39;97.57;;;38.87;;
73023;SDS011;61199;47.526;8.538;2022-12-18T10:19:58;93.17;;;36.00;;
73023;SDS011;61199;47.526;8.538;2022-12-18T10:22:43;87.97;;;35.17;;
73023;SDS011;61199;47.526;8.538;2022-12-18T10:27:48;91.03;;;36.60;;
73023;SDS011;61199;47.526;8.538;2022-12-18T10:30:26;99.80;;;37.60;;
73023;SDS011;61199;47.526;8.538;2022-12-18T10:32:52;109.53;;;40.23;;
73023;SDS011;61199;47.526;8.538;2022-12-18T10:35:21;99.07;;;40.00;;
73023;SDS011;61199;47.526;8.538;2022-12-18T10:38:06;90.43;;;37.10;;
73023;SDS011;61199;47.526;8.538;2022-12-18T10:40:58;102.77;;;39.33;;
73023;SDS011;61199;47.526;8.538;2022-12-18T10:43:37;92.00;;;35.60;;
73023;SDS011;61199;47.526;8.538;2022-12-18T10:51:33;97.87;;;40.00;;
73023;SDS011;61199;47.526;8.538;2022-12-18T10:54:03;91.43;;;36.27;;
73023;SDS011;61199;47.526;8.538;2022-12-18T10:56:33;101.43;;;39.77;;
73023;SDS011;61199;47.526;8.538;2022-12-18T10:59:05;96.93;;;37.63;;
73023;SDS011;61199;47.526;8.538;2022-12-18T11:04:19;91.37;;;35.33;;
73023;SDS011;61199;47.526;8.538;2022-12-18T11:07:01;99.37;;;38.37;;
73023;SDS011;61199;47.526;8.538;2022-12-18T11:09:32;98.20;;;37.57;;
73023;SDS011;61199;47.526;8.538;2022-12-18T11:12:02;92.87;;;36.43;;
73023;SDS011;61199;47.526;8.538;2022-12-18T11:14:50;98.27;;;36.97;;
73023;SDS011;61199;47.526;8.538;2022-12-18T11:17:19;98.50;;;37.77;;
73023;SDS011;61199;47.526;8.538;2022-12-18T11:19:52;93.20;;;36.17;;
73023;SDS011;61199;47.526;8.538;2022-12-18T11:22:25;101.63;;;37.15;;
73023;SDS011;61199;47.526;8.538;2022-12-18T11:27:47;89.30;;;35.83;;
73023;SDS011;61199;47.526;8.538;2022-12-18T11:30:37;87.33;;;36.50;;
73023;SDS011;61199;47.526;8.538;2022-12-18T11:33:08;90.00;;;37.27;;
73023;SDS011;61199;47.526;8.538;2022-12-18T11:35:51;86.87;;;35.63;;
73023;SDS011;61199;47.526;8.538;2022-12-18T11:38:23;92.73;;;36.63;;
73023;SDS011;61199;47.526;8.538;2022-12-18T11:44:10;83.50;;;33.90;;
73023;SDS011;61199;47.526;8.538;2022-12-18T11:46:43;86.30;;;34.53;;
73023;SDS011;61199;47.526;8.538;2022-12-18T11:49:22;87.03;;;34.40;;
73023;SDS011;61199;47.526;8.538;2022-12-18T11:54:38;88.90;;;34.40;;
73023;SDS011;61199;47.526;8.538;2022-12-18T11:57:10;88.77;;;33.60;;
73023;SDS011;61199;47.526;8.538;2022-12-18T12:00:07;84.63;;;33.00;;
73023;SDS011;61199;47.526;8.538;2022-12-18T12:11:17;86.33;;;34.73;;
73023;SDS011;61199;47.526;8.538;2022-12-18T12:22:51;82.70;;;33.60;;
73023;SDS011;61199;47.526;8.538;2022-12-18T12:25:37;75.23;;;28.40;;
73023;SDS011;61199;47.526;8.538;2022-12-18T12:39:30;76.07;;;28.27;;
73023;SDS011;61199;47.526;8.538;2022-12-18T12:42:01;77.60;;;31.07;;
73023;SDS011;61199;47.526;8.538;2022-12-18T12:44:51;69.10;;;29.07;;
73023;SDS011;61199;47.526;8.538;2022-12-18T12:47:33;73.83;;;28.50;;
73023;SDS011;61199;47.526;8.538;2022-12-18T12:50:05;77.03;;;30.97;;
73023;SDS011;61199;47.526;8.538;2022-12-18T12:52:43;83.17;;;32.33;;
73023;SDS011;61199;47.526;8.538;2022-12-18T12:55:31;77.60;;;31.07;;
73023;SDS011;61199;47.526;8.538;2022-12-18T12:58:05;80.60;;;30.50;;
73023;SDS011;61199;47.526;8.538;2022-12-18T13:00:44;82.80;;;31.67;;
73023;SDS011;61199;47.526;8.538;2022-12-18T13:06:02;76.30;;;29.00;;
73023;SDS011;61199;47.526;8.538;2022-12-18T13:08:51;71.20;;;29.67;;
73023;SDS011;61199;47.526;8.538;2022-12-18T13:11:41;78.63;;;30.10;;
73023;SDS011;61199;47.526;8.538;2022-12-18T13:14:32;77.97;;;30.37;;
73023;SDS011;61199;47.526;8.538;2022-12-18T13:17:23;83.77;;;32.17;;
73023;SDS011;61199;47.526;8.538;2022-12-18T13:20:06;83.60;;;31.27;;
73023;SDS011;61199;47.526;8.538;2022-12-18T13:22:37;84.70;;;32.53;;
73023;SDS011;61199;47.526;8.538;2022-12-18T13:27:59;84.20;;;32.40;;
73023;SDS011;61199;47.526;8.538;2022-12-18T13:35:41;87.43;;;32.40;;
73023;SDS011;61199;47.526;8.538;2022-12-18T13:43:45;82.37;;;32.00;;
73023;SDS011;61199;47.526;8.538;2022-12-18T13:46:43;76.87;;;33.13;;
73023;SDS011;61199;47.526;8.538;2022-12-18T13:51:39;90.23;;;34.33;;
73023;SDS011;61199;47.526;8.538;2022-12-18T13:54:29;85.37;;;33.67;;
73023;SDS011;61199;47.526;8.538;2022-12-18T13:57:01;74.00;;;29.23;;
73023;SDS011;61199;47.526;8.538;2022-12-18T13:59:35;74.87;;;31.00;;
73023;SDS011;61199;47.526;8.538;2022-12-18T14:02:13;69.20;;;27.43;;
73023;SDS011;61199;47.526;8.538;2022-12-18T14:04:44;81.17;;;31.67;;
73023;SDS011;61199;47.526;8.538;2022-12-18T14:07:13;83.03;;;34.27;;
73023;SDS011;61199;47.526;8.538;2022-12-18T14:09:47;75.90;;;30.23;;
73023;SDS011;61199;47.526;8.538;2022-12-18T14:12:21;76.47;;;30.00;;
73023;SDS011;61199;47.526;8.538;2022-12-18T14:17:53;76.20;;;30.30;;
73023;SDS011;61199;47.526;8.538;2022-12-18T14:20:24;73.17;;;28.93;;
73023;SDS011;61199;47.526;8.538;2022-12-18T14:22:51;73.17;;;27.87;;
73023;SDS011;61199;47.526;8.538;2022-12-18T14:25:19;75.77;;;27.80;;
73023;SDS011;61199;47.526;8.538;2022-12-18T14:27:51;73.70;;;28.60;;
73023;SDS011;61199;47.526;8.538;2022-12-18T14:30:40;71.03;;;28.77;;
73023;SDS011;61199;47.526;8.538;2022-12-18T14:36:04;75.97;;;30.33;;
73023;SDS011;61199;47.526;8.538;2022-12-18T14:38:37;69.90;;;28.20;;
73023;SDS011;61199;47.526;8.538;2022-12-18T14:41:08;69.23;;;29.20;;
73023;SDS011;61199;47.526;8.538;2022-12-18T14:43:39;82.50;;;30.97;;
73023;SDS011;61199;47.526;8.538;2022-12-18T14:48:54;79.40;;;32.50;;
73023;SDS011;61199;47.526;8.538;2022-12-18T14:51:23;76.93;;;30.80;;
73023;SDS011;61199;47.526;8.538;2022-12-18T14:53:55;82.30;;;30.43;;
73023;SDS011;61199;47.526;8.538;2022-12-18T14:59:02;82.30;;;32.53;;
73023;SDS011;61199;47.526;8.538;2022-12-18T15:04:00;87.07;;;33.47;;
73023;SDS011;61199;47.526;8.538;2022-12-18T15:06:29;86.90;;;35.30;;
73023;SDS011;61199;47.526;8.538;2022-12-18T15:08:59;103.97;;;41.77;;
73023;SDS011;61199;47.526;8.538;2022-12-18T15:11:28;87.70;;;35.33;;
73023;SDS011;61199;47.526;8.538;2022-12-18T15:13:58;87.00;;;33.67;;
73023;SDS011;61199;47.526;8.538;2022-12-18T15:16:25;90.20;;;36.93;;
73023;SDS011;61199;47.526;8.538;2022-12-18T15:18:52;78.87;;;33.73;;
73023;SDS011;61199;47.526;8.538;2022-12-18T15:21:19;88.30;;;35.73;;
73023;SDS011;61199;47.526;8.538;2022-12-18T15:23:48;94.53;;;38.77;;
73023;SDS011;61199;47.526;8.538;2022-12-18T15:26:19;88.07;;;34.97;;
73023;SDS011;61199;47.526;8.538;2022-12-18T15:33:44;88.10;;;35.87;;
73023;SDS011;61199;47.526;8.538;2022-12-18T15:36:26;87.40;;;36.57;;
73023;SDS011;61199;47.526;8.538;2022-12-18T15:38:53;88.60;;;35.03;;
73023;SDS011;61199;47.526;8.538;2022-12-18T15:41:31;101.10;;;38.13;;
73023;SDS011;61199;47.526;8.538;2022-12-18T15:44:01;89.67;;;35.90;;
73023;SDS011;61199;47.526;8.538;2022-12-18T15:46:29;96.03;;;37.37;;
73023;SDS011;61199;47.526;8.538;2022-12-18T15:48:57;91.03;;;36.00;;
73023;SDS011;61199;47.526;8.538;2022-12-18T15:51:32;86.73;;;37.10;;
73023;SDS011;61199;47.526;8.538;2022-12-18T15:54:01;101.23;;;37.90;;
73023;SDS011;61199;47.526;8.538;2022-12-18T15:56:30;105.17;;;38.87;;
73023;SDS011;61199;47.526;8.538;2022-12-18T15:59:17;87.50;;;34.97;;
73023;SDS011;61199;47.526;8.538;2022-12-18T16:01:49;91.97;;;36.20;;
73023;SDS011;61199;47.526;8.538;2022-12-18T16:04:18;89.50;;;35.60;;
73023;SDS011;61199;47.526;8.538;2022-12-18T16:06:46;96.43;;;36.23;;
73023;SDS011;61199;47.526;8.538;2022-12-18T16:09:34;101.70;;;37.07;;
73023;SDS011;61199;47.526;8.538;2022-12-18T16:12:01;95.80;;;37.30;;
73023;SDS011;61199;47.526;8.538;2022-12-18T16:14:28;97.70;;;39.30;;
73023;SDS011;61199;47.526;8.538;2022-12-18T16:17:00;100.83;;;39.50;;
73023;SDS011;61199;47.526;8.538;2022-12-18T16:19:32;92.00;;;35.80;;
73023;SDS011;61199;47.526;8.538;2022-12-18T16:21:58;118.63;;;45.50;;
73023;SDS011;61199;47.526;8.538;2022-12-18T16:24:26;108.13;;;44.60;;
73023;SDS011;61199;47.526;8.538;2022-12-18T16:26:55;89.57;;;36.73;;
73023;SDS011;61199;47.526;8.538;2022-12-18T16:29:22;101.03;;;39.80;;
73023;SDS011;61199;47.526;8.538;2022-12-18T16:31:53;92.10;;;34.87;;
73023;SDS011;61199;47.526;8.538;2022-12-18T16:34:21;94.67;;;37.10;;